Dell, Arkansas
Current Conditions -  °F | °C
As of 10:53 PM on Thursday 25 Dec 2014 (Local Time) from KHKA Reporting Station
Clear Clear  
Wind Chill: 35°   Ceiling: Unl
Heat Index: 41°   Visibility: 10mi
Dew Point: 35°   Wind: 10mph
Humidity: 79%   Direction: 170°S
Pressure: 30.14"   Gusts: NA
Location:  35.86°N, 90.04°W
Report Text: KHKA 260453Z AUTO 17009KT 10SM CLR 05/02 A3014 RMK AO2 SLP209 T00500017
Loading
Personal Weather Stations






























Interactive Weather Map New forecast layout! Learn more

10-Day Weather Forecast

Advertisements
Track Severe Weather on mobile